Terminal Aerodrome Forecast
Issued by NWS Charleston, WV

Current Version | Previous Version | Text Only | Print | Product List | Glossary Off
Versions: 1 2 3 4 5 6 7 8 9 10 11 12 13 14 15 16 17 18 19 20 21 22 23 24 25 26 27 28 29 30 31

000
FTUS41 KRLX 200500
TAFEKN
TAF
KEKN 200523Z 2006/2106 00000KT 4SM BR SCT001 SCT050
     FM200900 00000KT 1/4SM FG VV001
     FM201200 00000KT 1SM BR OVC003
     FM201300 VRB03KT 6SM BR BKN015
     FM201500 17004KT P6SM BKN025
     FM201600 18004KT P6SM BKN035
     FM210100 00000KT P6SM BKN040=

USA.gov is the U.S. government's official web portal to all federal, state and local government web resources and services.